createdAt,value
2019-01-12T00:00:01.758Z,79.32
2019-01-12T00:02:54.721Z,79.55
2019-01-12T00:05:28.262Z,79.73
2019-01-12T00:08:01.527Z,80.22
2019-01-12T00:10:37.454Z,80.76
2019-01-12T00:13:12.622Z,81.13
2019-01-12T00:15:45.731Z,81.58
2019-01-12T00:18:19.434Z,81.73
2019-01-12T00:20:55.956Z,82.08
2019-01-12T00:23:29.170Z,82.45
2019-01-12T00:26:01.948Z,82.68
2019-01-12T00:28:47.986Z,82.66
2019-01-12T00:31:37.274Z,82.75
2019-01-12T00:34:28.896Z,82.34
2019-01-12T00:37:19.564Z,82.09
2019-01-12T00:40:08.768Z,81.67
2019-01-12T00:42:57.992Z,80.33
2019-01-12T00:45:47.226Z,79.51
2019-01-12T00:48:37.293Z,78.96
2019-01-12T00:51:27.069Z,78.51
2019-01-12T00:54:21.168Z,78.38
2019-01-12T00:57:11.603Z,78.25
2019-01-12T01:00:01.212Z,78.15
2019-01-12T01:02:51.640Z,78.33
2019-01-12T01:05:41.737Z,78.41
2019-01-12T01:08:31.336Z,78.75
2019-01-12T01:11:20.296Z,78.94
2019-01-12T01:14:09.778Z,79.30
2019-01-12T01:16:59.010Z,79.54
2019-01-12T01:19:48.098Z,80.00
2019-01-12T01:22:37.306Z,80.40
2019-01-12T01:25:27.642Z,80.79
2019-01-12T01:28:16.919Z,81.01
2019-01-12T01:31:07.028Z,81.67
2019-01-12T01:33:56.941Z,82.12
2019-01-12T01:36:47.203Z,82.77
2019-01-12T01:39:37.489Z,83.20
2019-01-12T01:42:27.170Z,83.69
2019-01-12T01:45:20.987Z,84.20
2019-01-12T01:48:10.395Z,84.93
2019-01-12T01:50:59.788Z,85.42
2019-01-12T01:53:49.039Z,85.92
2019-01-12T01:56:38.688Z,86.39
2019-01-12T01:59:28.183Z,86.78
2019-01-12T02:02:21.950Z,87.11
2019-01-12T02:05:11.163Z,87.36
2019-01-12T02:08:03.651Z,87.56
2019-01-12T02:10:53.695Z,87.73
2019-01-12T02:13:42.790Z,87.86
2019-01-12T02:16:32.405Z,87.96
2019-01-12T02:19:23.359Z,87.85
2019-01-12T02:22:13.196Z,87.80
2019-01-12T02:25:02.838Z,87.77
2019-01-12T02:27:52.527Z,87.71
2019-01-12T02:30:41.324Z,87.68
2019-01-12T02:33:30.953Z,87.67
2019-01-12T02:36:20.423Z,87.64
2019-01-12T02:39:09.970Z,87.63
2019-01-12T02:41:59.378Z,87.85
2019-01-12T02:44:48.371Z,88.17
2019-01-12T02:47:37.785Z,88.48
2019-01-12T02:50:27.711Z,88.90
2019-01-12T02:53:17.038Z,89.23
2019-01-12T02:56:09.002Z,89.59
2019-01-12T02:58:58.337Z,89.95
2019-01-12T03:01:47.502Z,90.35
2019-01-12T03:04:37.189Z,90.59
2019-01-12T03:07:26.150Z,90.72
2019-01-12T03:10:16.719Z,90.87
2019-01-12T03:13:07.154Z,91.05
2019-01-12T03:15:56.305Z,91.23
2019-01-12T03:18:45.600Z,91.27
2019-01-12T03:21:36.222Z,91.27
2019-01-12T03:24:25.517Z,91.19
2019-01-12T03:27:15.069Z,91.09
2019-01-12T03:30:13.403Z,90.95
2019-01-12T03:33:03.125Z,90.86
2019-01-12T03:35:52.414Z,90.82
2019-01-12T03:38:41.809Z,90.74
2019-01-12T03:41:30.522Z,90.71
2019-01-12T03:44:20.256Z,90.62
2019-01-12T03:47:09.979Z,90.60
2019-01-12T03:49:59.666Z,90.51
2019-01-12T03:52:48.902Z,90.41
2019-01-12T03:55:40.291Z,90.26
2019-01-12T03:58:30.018Z,90.21
2019-01-12T04:01:19.401Z,90.11
2019-01-12T04:03:56.581Z,89.93
2019-01-12T04:06:38.803Z,89.90
2019-01-12T04:09:12.033Z,89.83
2019-01-12T04:11:54.644Z,89.84
2019-01-12T04:14:36.848Z,89.76
2019-01-12T04:17:10.159Z,89.65
2019-01-12T04:19:45.482Z,89.51
2019-01-12T04:22:18.741Z,89.40
2019-01-12T04:25:04.633Z,89.29
2019-01-12T04:27:38.222Z,89.18
2019-01-12T04:30:14.165Z,89.21
2019-01-12T04:33:02.108Z,89.15
2019-01-12T04:35:35.275Z,89.13
2019-01-12T04:38:08.573Z,89.13
2019-01-12T04:40:50.586Z,89.08
2019-01-12T04:43:26.189Z,89.00
2019-01-12T04:45:59.687Z,88.80
2019-01-12T04:48:33.185Z,88.59
2019-01-12T04:51:06.785Z,88.35
2019-01-12T04:53:45.452Z,88.31
2019-01-12T04:56:27.739Z,88.25
2019-01-12T04:59:01.089Z,88.25
2019-01-12T05:01:37.927Z,88.19
2019-01-12T05:04:11.475Z,88.04
2019-01-12T05:06:44.667Z,87.93
2019-01-12T05:09:26.936Z,87.79
2019-01-12T05:12:10.349Z,87.79
2019-01-12T05:14:43.504Z,87.86
2019-01-12T05:17:16.813Z,88.01
2019-01-12T05:19:58.763Z,88.31
2019-01-12T05:22:32.394Z,88.51
2019-01-12T05:25:06.571Z,88.72
2019-01-12T05:27:48.903Z,89.05
2019-01-12T05:30:24.463Z,89.32
2019-01-12T05:33:07.825Z,89.63
2019-01-12T05:35:40.970Z,89.86
2019-01-12T05:38:30.296Z,90.05
2019-01-12T05:41:03.470Z,90.07
2019-01-12T05:43:48.156Z,90.20
2019-01-12T05:46:21.306Z,90.32
2019-01-12T05:48:55.231Z,90.26
2019-01-12T05:51:28.728Z,90.19
2019-01-12T05:54:02.433Z,90.17
2019-01-12T05:56:39.719Z,90.25
2019-01-12T05:59:13.251Z,90.22
2019-01-12T06:01:51.126Z,90.28
2019-01-12T06:04:32.134Z,90.36
2019-01-12T06:07:14.535Z,90.37
2019-01-12T06:09:57.444Z,90.37
2019-01-12T06:12:43.217Z,90.35
2019-01-12T06:15:17.253Z,90.34
2019-01-12T06:18:02.980Z,90.35
2019-01-12T06:20:41.210Z,90.31
2019-01-12T06:23:14.783Z,90.26
2019-01-12T06:25:48.193Z,89.99
2019-01-12T06:28:21.808Z,89.79
2019-01-12T06:30:55.361Z,89.71
2019-01-12T06:33:29.224Z,89.69
2019-01-12T06:36:03.952Z,89.57
2019-01-12T06:38:37.514Z,89.34
2019-01-12T06:41:11.412Z,89.24
2019-01-12T06:43:44.693Z,88.96
2019-01-12T06:46:18.450Z,88.72
2019-01-12T06:48:51.830Z,88.63
2019-01-12T06:51:25.203Z,88.43
2019-01-12T06:53:58.726Z,88.31
2019-01-12T06:56:40.609Z,88.08
2019-01-12T06:59:14.361Z,87.92
2019-01-12T07:01:47.733Z,87.85
2019-01-12T07:04:19.161Z,87.82
2019-01-12T07:06:53.769Z,87.72
2019-01-12T07:09:26.974Z,87.50
2019-01-12T07:12:00.252Z,87.32
2019-01-12T07:14:33.767Z,87.18
2019-01-12T07:17:07.381Z,87.16
2019-01-12T07:19:43.162Z,87.12
2019-01-12T07:22:17.519Z,87.03
2019-01-12T07:25:00.418Z,86.87
2019-01-12T07:27:34.017Z,86.72
2019-01-12T07:30:10.269Z,86.70
2019-01-12T07:32:43.456Z,86.76
2019-01-12T07:35:17.640Z,86.91
2019-01-12T07:38:00.123Z,87.04
2019-01-12T07:40:35.144Z,87.03
2019-01-12T07:43:08.408Z,86.98
2019-01-12T07:45:43.063Z,87.14
2019-01-12T07:48:24.982Z,87.32
2019-01-12T07:50:58.679Z,87.35
2019-01-12T07:53:32.156Z,87.33
2019-01-12T07:56:07.528Z,87.23
2019-01-12T07:58:40.789Z,87.13
2019-01-12T08:01:15.247Z,87.04
2019-01-12T08:03:46.932Z,86.96
2019-01-12T08:06:20.176Z,86.95
2019-01-12T08:08:53.489Z,86.83
2019-01-12T08:11:34.354Z,86.65
2019-01-12T08:14:21.852Z,86.42
2019-01-12T08:16:56.166Z,86.22
2019-01-12T08:19:28.326Z,85.95
2019-01-12T08:22:12.336Z,85.81
2019-01-12T08:24:50.475Z,85.64
2019-01-12T08:28:04.306Z,85.38
2019-01-12T08:30:52.958Z,85.27
2019-01-12T08:33:50.280Z,85.25
2019-01-12T08:36:30.322Z,85.09
2019-01-12T08:39:10.695Z,84.84
2019-01-12T08:41:49.571Z,84.57
2019-01-12T08:44:37.921Z,84.34
2019-01-12T08:47:25.840Z,84.39
2019-01-12T08:50:18.372Z,84.67
2019-01-12T08:53:04.666Z,84.71
2019-01-12T08:55:37.887Z,84.86
2019-01-12T08:58:20.672Z,84.88
2019-01-12T09:01:03.098Z,85.01
2019-01-12T09:03:36.386Z,85.30
2019-01-12T09:06:11.898Z,85.53
2019-01-12T09:08:46.154Z,85.59
2019-01-12T09:11:19.417Z,85.69
2019-01-12T09:14:02.340Z,85.94
2019-01-12T09:16:44.448Z,86.25
2019-01-12T09:19:18.025Z,86.56
2019-01-12T09:21:51.674Z,86.61
2019-01-12T09:24:25.320Z,86.74
2019-01-12T09:26:59.106Z,86.86
2019-01-12T09:29:36.663Z,86.75
2019-01-12T09:32:10.286Z,86.71
2019-01-12T09:34:44.559Z,86.78
2019-01-12T09:37:18.844Z,86.87
2019-01-12T09:39:52.260Z,87.14
2019-01-12T09:42:36.681Z,87.38
2019-01-12T09:45:20.959Z,87.44
2019-01-12T09:48:03.384Z,87.46
2019-01-12T09:50:36.960Z,87.60
2019-01-12T09:53:12.044Z,87.83
2019-01-12T09:55:45.375Z,88.20
2019-01-12T09:58:20.564Z,88.57
2019-01-12T10:00:53.926Z,88.99
2019-01-12T10:03:27.330Z,89.37
2019-01-12T10:06:01.229Z,89.61
2019-01-12T10:08:35.043Z,89.89
2019-01-12T10:11:08.591Z,90.17
2019-01-12T10:13:41.484Z,90.42
2019-01-12T10:16:24.040Z,90.71
2019-01-12T10:18:57.829Z,90.85
2019-01-12T10:21:40.251Z,91.01
2019-01-12T10:24:13.515Z,91.13
2019-01-12T10:26:46.843Z,91.24
2019-01-12T10:29:20.593Z,91.33
2019-01-12T10:31:54.963Z,91.40
2019-01-12T10:34:29.821Z,91.38
2019-01-12T10:37:05.834Z,91.44
2019-01-12T10:39:48.163Z,91.52
2019-01-12T10:42:21.500Z,91.54
2019-01-12T10:44:55.000Z,91.54
2019-01-12T10:47:28.333Z,91.50
2019-01-12T10:50:01.804Z,91.44
2019-01-12T10:52:35.348Z,91.38
2019-01-12T10:55:08.727Z,91.35
2019-01-12T10:57:41.744Z,91.32
2019-01-12T11:00:19.381Z,91.28
2019-01-12T11:02:52.707Z,91.28
2019-01-12T11:05:34.744Z,91.21
2019-01-12T11:08:08.294Z,91.16
2019-01-12T11:10:41.352Z,91.08
2019-01-12T11:13:15.608Z,90.99
2019-01-12T11:15:49.571Z,90.95
2019-01-12T11:18:31.768Z,90.93
2019-01-12T11:21:05.286Z,90.93
2019-01-12T11:23:38.584Z,90.89
2019-01-12T11:26:11.878Z,90.93
2019-01-12T11:28:45.426Z,91.02
2019-01-12T11:31:33.803Z,91.14
2019-01-12T11:34:06.988Z,91.25
2019-01-12T11:36:40.305Z,91.39
2019-01-12T11:39:13.501Z,91.55
2019-01-12T11:41:57.876Z,91.72
2019-01-12T11:44:32.102Z,91.80
2019-01-12T11:47:14.273Z,91.96
2019-01-12T11:49:47.959Z,92.08
2019-01-12T11:52:21.266Z,92.24
2019-01-12T11:54:54.676Z,92.36
2019-01-12T11:57:27.958Z,92.52
2019-01-12T12:00:34.161Z,92.59
2019-01-12T12:03:06.971Z,92.62
2019-01-12T12:05:40.170Z,92.68
2019-01-12T12:08:22.742Z,92.75
2019-01-12T12:11:05.179Z,92.78
2019-01-12T12:13:38.479Z,92.75
2019-01-12T12:16:11.265Z,92.81
2019-01-12T12:18:53.789Z,92.82
2019-01-12T12:21:27.705Z,92.85
2019-01-12T12:24:10.221Z,92.86
2019-01-12T12:26:44.225Z,92.88
2019-01-12T12:29:27.288Z,92.88
2019-01-12T12:32:00.628Z,92.82
2019-01-12T12:34:43.064Z,92.86
2019-01-12T12:37:16.861Z,92.86
2019-01-12T12:40:01.637Z,92.91
2019-01-12T12:42:35.097Z,92.92
2019-01-12T12:45:10.551Z,92.95
2019-01-12T12:47:43.833Z,92.98
2019-01-12T12:50:18.504Z,93.02
2019-01-12T12:52:51.701Z,93.06
2019-01-12T12:55:25.069Z,93.09
2019-01-12T12:57:59.140Z,93.12
2019-01-12T13:00:41.375Z,93.18
2019-01-12T13:03:14.747Z,93.21
2019-01-12T13:05:48.746Z,93.24
2019-01-12T13:08:23.000Z,93.28
2019-01-12T13:11:05.090Z,93.29
2019-01-12T13:13:38.681Z,93.32
2019-01-12T13:16:11.460Z,93.36
2019-01-12T13:18:45.139Z,93.35
2019-01-12T13:21:18.319Z,93.37
2019-01-12T13:23:53.228Z,93.38
2019-01-12T13:26:26.846Z,93.38
2019-01-12T13:29:00.271Z,93.43
2019-01-12T13:31:34.116Z,93.46
2019-01-12T13:34:07.628Z,93.46
2019-01-12T13:36:41.457Z,93.45
2019-01-12T13:39:23.664Z,93.46
2019-01-12T13:41:56.919Z,93.47
2019-01-12T13:44:31.174Z,93.50
2019-01-12T13:47:04.459Z,93.48
2019-01-12T13:49:37.658Z,93.50
2019-01-12T13:52:11.272Z,93.51
2019-01-12T13:54:44.880Z,93.50
2019-01-12T13:57:16.724Z,93.53
2019-01-12T13:59:48.670Z,93.54
2019-01-12T14:02:21.682Z,93.53
2019-01-12T14:04:55.299Z,93.50
2019-01-12T14:07:37.752Z,93.51
2019-01-12T14:10:13.010Z,93.48
2019-01-12T14:12:46.689Z,93.46
2019-01-12T14:15:20.400Z,93.44
2019-01-12T14:17:54.115Z,93.42
2019-01-12T14:20:41.389Z,93.42
2019-01-12T14:23:15.191Z,93.40
2019-01-12T14:25:58.875Z,93.25
2019-01-12T14:28:32.270Z,93.13
2019-01-12T14:31:04.184Z,93.05
2019-01-12T14:33:38.152Z,92.97
2019-01-12T14:36:12.179Z,92.81
2019-01-12T14:38:54.441Z,92.64
2019-01-12T14:41:27.938Z,92.49
2019-01-12T14:44:01.386Z,92.27
2019-01-12T14:46:35.365Z,92.12
2019-01-12T14:49:08.985Z,91.91
2019-01-12T14:51:42.253Z,91.75
2019-01-12T14:54:15.753Z,91.64
2019-01-12T14:56:49.085Z,91.49
2019-01-12T14:59:22.776Z,91.33
2019-01-12T15:01:56.315Z,91.20
2019-01-12T15:04:30.446Z,90.92
2019-01-12T15:07:04.409Z,90.63
2019-01-12T15:09:53.672Z,90.55
2019-01-12T15:12:35.850Z,90.41
2019-01-12T15:15:08.594Z,90.20
2019-01-12T15:17:41.617Z,89.93
2019-01-12T15:20:31.623Z,89.77
2019-01-12T15:23:03.613Z,89.44
2019-01-12T15:25:37.514Z,89.25
2019-01-12T15:28:11.046Z,89.16
2019-01-12T15:30:44.711Z,89.19
2019-01-12T15:33:16.593Z,89.13
2019-01-12T15:35:51.592Z,89.11
2019-01-12T15:38:25.342Z,89.05
2019-01-12T15:40:58.932Z,89.01
2019-01-12T15:43:33.893Z,88.88
2019-01-12T15:46:08.258Z,88.80
2019-01-12T15:48:42.032Z,88.86
2019-01-12T15:51:26.295Z,88.87
2019-01-12T15:54:01.294Z,88.52
2019-01-12T15:56:36.034Z,88.46
2019-01-12T15:59:10.555Z,88.08
2019-01-12T16:01:53.245Z,87.64
2019-01-12T16:04:36.120Z,87.33
2019-01-12T16:07:10.730Z,87.09
2019-01-12T16:09:44.625Z,87.06
2019-01-12T16:12:18.471Z,87.21
2019-01-12T16:14:52.318Z,87.36
2019-01-12T16:17:25.406Z,87.37
2019-01-12T16:20:00.036Z,87.46
2019-01-12T16:22:33.883Z,87.57
2019-01-12T16:25:08.083Z,87.82
2019-01-12T16:27:41.891Z,87.99
2019-01-12T16:30:25.445Z,88.20
2019-01-12T16:33:00.191Z,88.20
2019-01-12T16:35:49.058Z,88.05
2019-01-12T16:38:32.870Z,87.90
2019-01-12T16:41:08.044Z,87.74
2019-01-12T16:43:43.426Z,87.77
2019-01-12T16:46:20.347Z,87.65
2019-01-12T16:48:55.609Z,87.54
2019-01-12T16:51:29.926Z,87.46
2019-01-12T16:54:03.250Z,87.38
2019-01-12T16:56:45.336Z,87.51
2019-01-12T16:59:18.630Z,87.62
2019-01-12T17:01:52.471Z,87.67
2019-01-12T17:04:26.715Z,87.81
2019-01-12T17:06:59.449Z,88.05
2019-01-12T17:09:32.807Z,88.44
2019-01-12T17:12:06.044Z,89.02
2019-01-12T17:14:48.417Z,89.43
2019-01-12T17:17:22.015Z,89.67
2019-01-12T17:20:19.352Z,89.78
2019-01-12T17:22:53.536Z,89.91
2019-01-12T17:25:37.774Z,90.11
2019-01-12T17:28:11.561Z,90.21
2019-01-12T17:30:45.732Z,90.31
2019-01-12T17:33:31.573Z,90.48
2019-01-12T17:36:04.691Z,90.51
2019-01-12T17:38:38.250Z,90.48
2019-01-12T17:41:12.260Z,90.45
2019-01-12T17:43:46.129Z,90.48
2019-01-12T17:46:20.243Z,90.50
2019-01-12T17:48:55.091Z,90.39
2019-01-12T17:51:28.780Z,90.32
2019-01-12T17:54:02.700Z,90.25
2019-01-12T17:56:37.312Z,90.19
2019-01-12T17:59:16.093Z,90.12
2019-01-12T18:01:50.396Z,90.21
2019-01-12T18:04:24.549Z,90.12
2019-01-12T18:06:59.585Z,90.17
2019-01-12T18:09:34.379Z,90.25
2019-01-12T18:12:19.206Z,90.38
2019-01-12T18:14:53.458Z,90.51
2019-01-12T18:17:27.706Z,90.66
2019-01-12T18:20:13.911Z,90.83
2019-01-12T18:22:47.442Z,90.96
2019-01-12T18:25:22.024Z,91.04
2019-01-12T18:27:57.052Z,91.18
2019-01-12T18:30:30.862Z,91.31
2019-01-12T18:33:03.552Z,91.24
2019-01-12T18:35:37.689Z,91.27
2019-01-12T18:38:11.152Z,91.26
2019-01-12T18:40:44.216Z,91.38
2019-01-12T18:43:16.392Z,91.37
2019-01-12T18:45:49.707Z,91.28
2019-01-12T18:48:22.834Z,91.19
2019-01-12T18:51:04.808Z,91.14
2019-01-12T18:53:37.994Z,91.09
2019-01-12T18:56:12.553Z,91.02
2019-01-12T18:58:58.994Z,90.91
2019-01-12T19:01:31.234Z,90.85
2019-01-12T19:04:04.815Z,90.85
2019-01-12T19:06:38.236Z,90.80
2019-01-12T19:09:11.442Z,90.76
2019-01-12T19:11:53.959Z,90.76
2019-01-12T19:14:27.590Z,90.76
2019-01-12T19:17:01.773Z,90.65
2019-01-12T19:19:45.043Z,90.49
2019-01-12T19:22:18.579Z,90.43
2019-01-12T19:24:51.798Z,90.31
2019-01-12T19:27:33.904Z,90.21
2019-01-12T19:30:10.412Z,90.08
2019-01-12T19:32:44.091Z,89.93
2019-01-12T19:35:17.455Z,89.82
2019-01-12T19:37:50.633Z,89.63
2019-01-12T19:40:24.103Z,89.47
2019-01-12T19:43:12.457Z,89.41
2019-01-12T19:45:45.612Z,89.36
2019-01-12T19:48:19.228Z,89.17
2019-01-12T19:50:52.477Z,89.01
2019-01-12T19:53:34.362Z,88.87
2019-01-12T19:56:07.826Z,88.84
2019-01-12T19:58:41.023Z,88.92
2019-01-12T20:01:14.613Z,89.00
2019-01-12T20:03:47.920Z,89.25
2019-01-12T20:06:32.440Z,89.33
2019-01-12T20:09:08.826Z,89.43
2019-01-12T20:11:42.035Z,89.57
2019-01-12T20:14:31.961Z,89.66
2019-01-12T20:17:05.262Z,89.75
2019-01-12T20:19:38.566Z,89.74
2019-01-12T20:22:11.782Z,89.80
2019-01-12T20:24:56.413Z,89.92
2019-01-12T20:27:33.465Z,90.05
2019-01-12T20:30:06.695Z,90.01
2019-01-12T20:33:15.688Z,90.01
2019-01-12T20:36:39.265Z,90.13
2019-01-12T20:40:23.144Z,90.45
2019-01-12T20:43:19.402Z,90.61
2019-01-12T20:46:55.495Z,90.94
2019-01-12T20:49:53.946Z,90.96
2019-01-12T20:53:13.278Z,90.73
2019-01-12T20:56:27.661Z,90.64
2019-01-12T20:59:31.335Z,90.64
2019-01-12T21:02:35.683Z,90.73
2019-01-12T21:05:34.598Z,90.82
2019-01-12T21:08:30.021Z,90.74
2019-01-12T21:11:44.071Z,90.70
2019-01-12T21:14:43.477Z,90.72
2019-01-12T21:17:18.558Z,90.67
2019-01-12T21:19:51.836Z,90.64
2019-01-12T21:22:24.950Z,90.60
2019-01-12T21:25:09.725Z,90.70
2019-01-12T21:27:55.033Z,90.86
2019-01-12T21:30:28.496Z,90.98
2019-01-12T21:33:01.842Z,91.00
2019-01-12T21:35:35.340Z,91.08
2019-01-12T21:38:08.829Z,91.11
2019-01-12T21:40:42.783Z,91.22
2019-01-12T21:43:16.720Z,91.30
2019-01-12T21:45:50.298Z,91.31
2019-01-12T21:48:22.013Z,91.43
2019-01-12T21:50:55.710Z,91.45
2019-01-12T21:53:28.911Z,91.47
2019-01-12T21:56:01.874Z,91.52
2019-01-12T21:58:52.610Z,91.66
2019-01-12T22:01:25.844Z,91.79
2019-01-12T22:03:58.245Z,91.87
2019-01-12T22:06:31.490Z,91.93
2019-01-12T22:09:08.575Z,91.92
2019-01-12T22:11:42.377Z,91.99
2019-01-12T22:14:15.921Z,92.04
2019-01-12T22:16:49.462Z,92.06
2019-01-12T22:19:20.890Z,92.03
2019-01-12T22:21:54.191Z,92.00
2019-01-12T22:24:36.471Z,92.04
2019-01-12T22:27:09.868Z,92.00
2019-01-12T22:29:49.896Z,92.00
2019-01-12T22:32:18.470Z,91.88
2019-01-12T22:34:51.582Z,91.90
2019-01-12T22:37:25.228Z,91.98
2019-01-12T22:39:58.893Z,92.05
2019-01-12T22:42:32.932Z,92.03
2019-01-12T22:45:07.308Z,91.98
2019-01-12T22:47:51.891Z,92.00
2019-01-12T22:50:25.196Z,92.05
2019-01-12T22:52:58.397Z,92.12
2019-01-12T22:55:31.784Z,92.12
2019-01-12T22:58:14.186Z,92.16
2019-01-12T23:01:15.532Z,92.18
2019-01-12T23:03:51.578Z,92.19
2019-01-12T23:06:24.776Z,92.28
2019-01-12T23:08:57.167Z,92.22
2019-01-12T23:11:30.549Z,92.21
2019-01-12T23:14:04.157Z,92.21
2019-01-12T23:16:37.347Z,92.22
2019-01-12T23:19:23.889Z,92.17
2019-01-12T23:21:57.413Z,92.14
2019-01-12T23:24:30.593Z,92.16
2019-01-12T23:27:04.195Z,92.15
2019-01-12T23:29:37.781Z,92.19
2019-01-12T23:32:11.088Z,92.27
2019-01-12T23:34:54.736Z,92.34
2019-01-12T23:37:37.220Z,92.33
2019-01-12T23:40:11.053Z,92.33
2019-01-12T23:42:55.777Z,92.34
2019-01-12T23:45:29.744Z,92.26
2019-01-12T23:48:12.343Z,92.27
2019-01-12T23:50:45.790Z,92.25
2019-01-12T23:53:19.021Z,92.20
2019-01-12T23:55:52.353Z,92.24
2019-01-12T23:58:25.631Z,92.22
